createdAt,value
2023-02-27T00:01:47.866Z,62.52
2023-02-27T00:04:14.677Z,62.62
2023-02-27T00:06:41.202Z,62.16
2023-02-27T00:09:08.308Z,62.54
2023-02-27T00:11:34.936Z,62.60
2023-02-27T00:14:01.414Z,62.76
2023-02-27T00:16:28.041Z,62.52
2023-02-27T00:18:54.902Z,62.33
2023-02-27T00:21:21.375Z,62.50
2023-02-27T00:23:47.999Z,62.80
2023-02-27T00:26:14.540Z,62.62
2023-02-27T00:28:40.978Z,62.55
2023-02-27T00:31:09.143Z,62.49
2023-02-27T00:33:35.709Z,62.34
2023-02-27T00:36:02.821Z,62.78
2023-02-27T00:38:29.657Z,62.94
2023-02-27T00:40:56.186Z,62.56
2023-02-27T00:43:22.677Z,62.86
2023-02-27T00:45:49.182Z,62.40
2023-02-27T00:48:16.207Z,63.01
2023-02-27T00:50:43.359Z,62.68
2023-02-27T00:53:10.050Z,62.65
2023-02-27T00:55:36.604Z,62.72
2023-02-27T00:58:03.122Z,63.25
2023-02-27T01:00:29.756Z,62.97
2023-02-27T01:02:56.318Z,62.74
2023-02-27T01:05:22.789Z,63.19
2023-02-27T01:07:49.322Z,63.11
2023-02-27T01:10:15.863Z,62.73
2023-02-27T01:12:42.428Z,62.76
2023-02-27T01:15:10.220Z,62.98
2023-02-27T01:17:36.690Z,62.74
2023-02-27T01:20:03.749Z,63.18
2023-02-27T01:22:30.156Z,63.13
2023-02-27T01:24:56.647Z,63.33
2023-02-27T01:27:23.068Z,63.07
2023-02-27T01:29:49.613Z,63.37
2023-02-27T01:32:16.320Z,63.15
2023-02-27T01:34:42.781Z,62.93
2023-02-27T01:37:09.374Z,63.49
2023-02-27T01:39:36.553Z,63.44
2023-02-27T01:42:03.929Z,63.38
2023-02-27T01:44:31.660Z,63.24
2023-02-27T01:46:58.261Z,63.56
2023-02-27T01:49:29.628Z,63.53
2023-02-27T01:52:05.868Z,62.95
2023-02-27T01:54:36.452Z,63.35
2023-02-27T01:57:06.645Z,63.54
2023-02-27T01:59:34.785Z,63.40
2023-02-27T02:02:04.984Z,63.54
2023-02-27T02:04:36.321Z,63.51
2023-02-27T02:07:07.599Z,63.06
2023-02-27T02:09:41.189Z,62.63
2023-02-27T02:12:08.204Z,63.22
2023-02-27T02:14:35.775Z,63.38
2023-02-27T02:17:22.516Z,62.37
2023-02-27T02:19:58.028Z,63.78
2023-02-27T02:22:39.671Z,62.54
2023-02-27T02:25:27.441Z,62.67
2023-02-27T02:28:03.069Z,63.02
2023-02-27T02:30:44.989Z,62.51
2023-02-27T02:33:33.385Z,62.99
2023-02-27T02:36:15.140Z,62.88
2023-02-27T02:38:50.847Z,62.47
2023-02-27T02:41:40.274Z,63.51
2023-02-27T02:44:31.533Z,62.60
2023-02-27T02:47:17.045Z,62.71
2023-02-27T02:50:01.904Z,63.94
2023-02-27T02:52:51.593Z,63.78
2023-02-27T02:55:33.358Z,62.98
2023-02-27T02:58:18.152Z,62.66
2023-02-27T03:01:10.912Z,62.87
2023-02-27T03:03:44.364Z,63.17
2023-02-27T03:06:19.823Z,63.41
2023-02-27T03:08:55.634Z,63.23
2023-02-27T03:11:29.671Z,63.37
2023-02-27T03:14:09.084Z,63.26
2023-02-27T03:16:45.849Z,63.11
2023-02-27T03:19:23.038Z,63.25
2023-02-27T03:21:59.159Z,62.86
2023-02-27T03:24:48.631Z,62.71
2023-02-27T03:27:17.530Z,63.47
2023-02-27T03:30:01.183Z,62.35
2023-02-27T03:32:36.633Z,63.34
2023-02-27T03:35:05.543Z,63.51
2023-02-27T03:37:53.884Z,63.03
2023-02-27T03:40:33.522Z,62.99
2023-02-27T03:43:09.020Z,64.16
2023-02-27T03:45:57.054Z,62.89
2023-02-27T03:48:23.760Z,63.90
2023-02-27T03:50:50.497Z,63.81
2023-02-27T03:53:42.966Z,62.62
2023-02-27T03:56:13.368Z,63.69
2023-02-27T03:58:40.262Z,64.05
2023-02-27T04:01:06.989Z,64.00
2023-02-27T04:03:39.452Z,64.48
2023-02-27T04:06:26.220Z,64.11
2023-02-27T04:09:16.965Z,64.17
2023-02-27T04:12:11.852Z,63.07
2023-02-27T04:14:50.496Z,63.81
2023-02-27T04:17:29.577Z,63.12
2023-02-27T04:20:08.351Z,62.96
2023-02-27T04:22:57.364Z,64.46
2023-02-27T04:25:42.696Z,64.15
2023-02-27T04:28:17.506Z,63.37
2023-02-27T04:31:05.627Z,64.14
2023-02-27T04:33:43.121Z,63.35
2023-02-27T04:36:28.261Z,63.09
2023-02-27T04:39:27.628Z,63.04
2023-02-27T04:41:55.962Z,64.68
2023-02-27T04:44:25.214Z,64.37
2023-02-27T04:46:53.813Z,64.68
2023-02-27T04:49:25.681Z,64.23
2023-02-27T04:51:58.475Z,63.43
2023-02-27T04:54:31.349Z,63.13
2023-02-27T04:57:04.123Z,64.29
2023-02-27T04:59:36.172Z,64.20
2023-02-27T05:02:10.428Z,64.01
2023-02-27T05:04:40.367Z,64.66
2023-02-27T05:07:10.677Z,64.97
2023-02-27T05:09:51.195Z,63.28
2023-02-27T05:12:21.477Z,64.15
2023-02-27T05:15:17.222Z,63.75
2023-02-27T05:17:55.355Z,64.37
2023-02-27T05:20:25.046Z,64.22
2023-02-27T05:23:00.937Z,63.65
2023-02-27T05:25:46.060Z,63.47
2023-02-27T05:28:40.989Z,63.18
2023-02-27T05:31:28.238Z,63.92
2023-02-27T05:34:04.135Z,63.76
2023-02-27T05:36:41.745Z,63.56
2023-02-27T05:39:10.243Z,64.63
2023-02-27T05:41:46.768Z,63.96
2023-02-27T05:44:18.879Z,64.33
2023-02-27T05:46:53.547Z,64.26
2023-02-27T05:49:27.794Z,64.11
2023-02-27T05:51:57.362Z,64.39
2023-02-27T05:54:38.931Z,63.40
2023-02-27T05:57:10.839Z,64.23
2023-02-27T05:59:55.073Z,63.22
2023-02-27T06:02:21.745Z,64.65
2023-02-27T06:04:48.379Z,64.84
2023-02-27T06:07:15.459Z,65.21
2023-02-27T06:09:44.502Z,64.22
2023-02-27T06:12:11.027Z,64.96
2023-02-27T06:14:37.498Z,64.78
2023-02-27T06:17:05.046Z,64.72
2023-02-27T06:19:31.604Z,64.73
2023-02-27T06:21:58.164Z,65.10
2023-02-27T06:24:25.450Z,65.05
2023-02-27T06:26:51.916Z,65.14
2023-02-27T06:29:18.484Z,64.81
2023-02-27T06:31:45.036Z,64.68
2023-02-27T06:34:11.580Z,64.56
2023-02-27T06:36:38.101Z,64.75
2023-02-27T06:39:05.107Z,65.33
2023-02-27T06:41:31.574Z,64.72
2023-02-27T06:43:58.129Z,65.05
2023-02-27T06:46:25.181Z,65.08
2023-02-27T06:48:51.857Z,64.94
2023-02-27T06:51:28.945Z,64.37
2023-02-27T06:53:58.953Z,65.06
2023-02-27T06:56:42.292Z,65.34
2023-02-27T06:59:24.421Z,65.31
2023-02-27T07:02:13.959Z,64.97
2023-02-27T07:04:44.818Z,64.95
2023-02-27T07:07:35.108Z,65.29
2023-02-27T07:10:05.661Z,65.18
2023-02-27T07:12:32.182Z,65.83
2023-02-27T07:14:59.022Z,65.97
2023-02-27T07:17:25.588Z,65.52
2023-02-27T07:19:52.028Z,65.87
2023-02-27T07:22:18.540Z,65.38
2023-02-27T07:24:45.198Z,65.85
2023-02-27T07:27:11.677Z,65.53
2023-02-27T07:29:38.175Z,65.65
2023-02-27T07:32:04.705Z,65.87
2023-02-27T07:34:31.287Z,65.94
2023-02-27T07:36:57.773Z,65.98
2023-02-27T07:39:24.366Z,66.04
2023-02-27T07:41:50.817Z,65.89
2023-02-27T07:44:17.494Z,66.20
2023-02-27T07:46:44.732Z,66.04
2023-02-27T07:49:11.368Z,66.79
2023-02-27T07:51:37.882Z,66.34
2023-02-27T07:54:04.464Z,66.65
2023-02-27T07:56:31.517Z,67.41
2023-02-27T07:58:58.049Z,66.59
2023-02-27T08:01:24.556Z,67.13
2023-02-27T08:03:51.024Z,67.14
2023-02-27T08:06:17.658Z,67.28
2023-02-27T08:08:44.320Z,67.08
2023-02-27T08:11:11.294Z,66.91
2023-02-27T08:16:24.352Z,67.15
2023-02-27T08:18:50.931Z,66.80
2023-02-27T08:21:17.453Z,66.68
2023-02-27T08:23:43.875Z,66.82
2023-02-27T08:26:10.776Z,66.95
2023-02-27T08:28:38.446Z,66.41
2023-02-27T08:31:05.239Z,66.52
2023-02-27T08:33:31.734Z,66.59
2023-02-27T08:35:58.534Z,66.26
2023-02-27T08:38:26.436Z,66.19
2023-02-27T08:40:53.476Z,66.10
2023-02-27T08:43:21.179Z,65.91
2023-02-27T08:45:48.777Z,65.58
2023-02-27T08:48:17.245Z,65.49
2023-02-27T08:50:44.617Z,65.31
2023-02-27T08:53:11.762Z,65.17
2023-02-27T08:55:38.339Z,65.38
2023-02-27T08:58:04.851Z,65.26
2023-02-27T09:00:32.456Z,65.25
2023-02-27T09:03:00.010Z,65.07
2023-02-27T09:05:26.845Z,65.56
2023-02-27T09:07:53.552Z,65.47
2023-02-27T09:10:19.982Z,65.61
2023-02-27T09:12:46.448Z,65.78
2023-02-27T09:15:13.017Z,65.56
2023-02-27T09:17:39.570Z,65.87
2023-02-27T09:20:09.310Z,65.89
2023-02-27T09:22:35.934Z,65.55
2023-02-27T09:25:02.641Z,65.43
2023-02-27T09:27:29.286Z,65.48
2023-02-27T09:29:56.406Z,65.81
2023-02-27T09:32:24.163Z,65.82
2023-02-27T09:34:50.733Z,65.93
2023-02-27T09:37:18.126Z,65.83
2023-02-27T09:39:46.416Z,65.76
2023-02-27T09:42:22.373Z,64.64
2023-02-27T09:45:02.200Z,64.98
2023-02-27T09:47:44.490Z,64.18
2023-02-27T09:50:38.555Z,64.25
2023-02-27T09:53:09.272Z,65.52
2023-02-27T09:55:39.785Z,65.14
2023-02-27T09:58:31.211Z,64.52
2023-02-27T10:01:26.113Z,65.17
2023-02-27T10:04:30.448Z,64.17
2023-02-27T10:07:03.003Z,66.27
2023-02-27T10:09:32.282Z,66.56
2023-02-27T10:12:20.020Z,65.47
2023-02-27T10:15:33.324Z,63.61
2023-02-27T10:18:26.056Z,64.35
2023-02-27T10:20:58.944Z,65.05
2023-02-27T10:23:43.704Z,64.23
2023-02-27T10:26:33.100Z,63.56
2023-02-27T10:29:09.756Z,65.45
2023-02-27T10:31:36.744Z,66.71
2023-02-27T10:34:03.470Z,66.63
2023-02-27T10:36:34.416Z,66.75
2023-02-27T10:39:11.079Z,64.50
2023-02-27T10:41:39.870Z,66.45
2023-02-27T10:44:06.650Z,66.52
2023-02-27T10:46:38.497Z,65.43
2023-02-27T10:49:16.021Z,63.32
2023-02-27T10:51:44.453Z,65.55
2023-02-27T10:54:26.353Z,61.62
2023-02-27T10:56:55.946Z,63.98
2023-02-27T10:59:35.456Z,61.35
2023-02-27T11:02:06.786Z,62.37
2023-02-27T11:04:38.043Z,62.40
2023-02-27T11:07:09.032Z,62.83
2023-02-27T11:09:37.152Z,63.33
2023-02-27T11:12:13.134Z,60.84
2023-02-27T11:15:14.931Z,60.14
2023-02-27T11:17:42.053Z,64.30
2023-02-27T11:20:31.692Z,60.16
2023-02-27T11:23:16.052Z,60.86
2023-02-27T11:25:43.697Z,64.72
2023-02-27T11:28:29.589Z,61.94
2023-02-27T11:31:08.766Z,61.61
2023-02-27T11:33:39.281Z,62.90
2023-02-27T11:36:07.146Z,64.23
2023-02-27T11:38:34.795Z,63.89
2023-02-27T11:41:04.430Z,61.52
2023-02-27T11:43:36.299Z,58.58
2023-02-27T11:46:42.780Z,58.20
2023-02-27T11:49:08.191Z,57.12
2023-02-27T11:52:12.056Z,57.50
2023-02-27T11:54:59.865Z,58.69
2023-02-27T11:57:29.691Z,62.23
2023-02-27T12:00:17.998Z,58.92
2023-02-27T12:02:47.640Z,61.78
2023-02-27T12:05:26.132Z,58.31
2023-02-27T12:08:07.720Z,56.48
2023-02-27T12:11:12.337Z,54.61
2023-02-27T12:13:45.503Z,59.42
2023-02-27T12:16:34.778Z,55.50
2023-02-27T12:19:19.815Z,52.56
2023-02-27T12:21:54.158Z,48.38
2023-02-27T12:24:49.617Z,44.80
2023-02-27T12:27:34.148Z,42.92
2023-02-27T12:30:07.614Z,44.48
2023-02-27T12:32:42.941Z,45.34
2023-02-27T12:35:19.593Z,45.46
2023-02-27T12:37:46.266Z,48.68
2023-02-27T12:40:18.162Z,47.10
2023-02-27T12:42:58.475Z,47.09
2023-02-27T12:45:43.275Z,47.27
2023-02-27T12:48:40.647Z,47.03
2023-02-27T12:51:19.451Z,47.25
2023-02-27T12:54:00.998Z,47.46
2023-02-27T12:56:51.163Z,47.68
2023-02-27T12:59:48.270Z,46.97
2023-02-27T13:02:35.907Z,47.85
2023-02-27T13:05:29.933Z,49.44
2023-02-27T13:08:04.801Z,47.60
2023-02-27T13:10:33.539Z,50.53
2023-02-27T13:13:28.786Z,49.06
2023-02-27T13:16:00.676Z,53.86
2023-02-27T13:18:45.355Z,51.84
2023-02-27T13:21:39.720Z,52.80
2023-02-27T13:24:28.359Z,53.78
2023-02-27T13:27:00.470Z,52.56
2023-02-27T13:29:47.359Z,51.40
2023-02-27T13:32:44.668Z,50.13
2023-02-27T13:35:19.958Z,47.54
2023-02-27T13:38:02.287Z,47.26
2023-02-27T13:40:30.110Z,50.79
2023-02-27T13:43:00.397Z,49.05
2023-02-27T13:45:48.669Z,46.87
2023-02-27T13:48:46.134Z,47.33
2023-02-27T13:51:50.833Z,47.14
2023-02-27T13:54:22.054Z,50.67
2023-02-27T13:56:54.661Z,47.82
2023-02-27T13:59:23.695Z,50.35
2023-02-27T14:01:58.154Z,46.30
2023-02-27T14:04:28.466Z,48.63
2023-02-27T14:07:11.013Z,45.50
2023-02-27T14:09:41.364Z,46.20
2023-02-27T14:12:44.518Z,45.04
2023-02-27T14:15:17.405Z,45.40
2023-02-27T14:17:46.376Z,49.76
2023-02-27T14:20:12.963Z,52.46
2023-02-27T14:23:05.307Z,50.25
2023-02-27T14:25:39.389Z,51.03
2023-02-27T14:28:16.159Z,50.05
2023-02-27T14:30:51.036Z,50.40
2023-02-27T14:33:39.070Z,48.16
2023-02-27T14:36:19.901Z,48.02
2023-02-27T14:38:46.946Z,49.63
2023-02-27T14:41:35.502Z,45.00
2023-02-27T14:44:02.984Z,48.85
2023-02-27T14:46:39.843Z,43.45
2023-02-27T14:49:18.026Z,45.79
2023-02-27T14:51:44.667Z,47.38
2023-02-27T14:54:21.211Z,43.26
2023-02-27T14:57:02.281Z,41.74
2023-02-27T14:59:42.094Z,41.57
2023-02-27T15:02:34.505Z,41.88
2023-02-27T15:05:01.105Z,44.09
2023-02-27T15:07:31.153Z,41.04
2023-02-27T15:10:02.124Z,41.48
2023-02-27T15:12:31.070Z,43.93
2023-02-27T15:15:00.945Z,42.40
2023-02-27T15:17:39.491Z,41.33
2023-02-27T15:20:30.153Z,39.60
2023-02-27T15:23:01.600Z,38.19
2023-02-27T15:25:28.149Z,40.69
2023-02-27T15:27:59.192Z,38.77
2023-02-27T15:30:25.829Z,39.86
2023-02-27T15:32:54.769Z,38.85
2023-02-27T15:35:24.647Z,37.77
2023-02-27T15:37:56.435Z,34.11
2023-02-27T15:40:28.101Z,34.68
2023-02-27T15:42:55.891Z,35.96
2023-02-27T15:45:27.632Z,35.33
2023-02-27T15:47:55.145Z,37.55
2023-02-27T15:50:31.660Z,37.79
2023-02-27T15:53:21.049Z,36.81
2023-02-27T15:56:05.984Z,37.78
2023-02-27T15:58:38.960Z,38.51
2023-02-27T16:01:08.076Z,40.85
2023-02-27T16:03:42.467Z,40.03
2023-02-27T16:06:35.602Z,40.19
2023-02-27T16:09:06.441Z,41.25
2023-02-27T16:11:35.673Z,42.19
2023-02-27T16:14:02.993Z,43.16
2023-02-27T16:16:38.392Z,42.14
2023-02-27T16:19:15.365Z,42.23
2023-02-27T16:22:20.497Z,42.70
2023-02-27T16:24:48.056Z,44.74
2023-02-27T16:27:19.443Z,43.60
2023-02-27T16:29:47.165Z,45.24
2023-02-27T16:32:46.651Z,43.93
2023-02-27T16:35:22.645Z,43.89
2023-02-27T16:37:50.429Z,45.62
2023-02-27T16:40:23.012Z,44.64
2023-02-27T16:42:50.676Z,45.82
2023-02-27T16:45:19.489Z,46.02
2023-02-27T16:47:49.092Z,45.87
2023-02-27T16:50:22.168Z,45.85
2023-02-27T16:52:48.783Z,47.21
2023-02-27T16:55:15.319Z,47.10
2023-02-27T16:57:41.840Z,47.48
2023-02-27T17:00:13.251Z,46.88
2023-02-27T17:02:39.871Z,47.84
2023-02-27T17:05:06.893Z,47.81
2023-02-27T17:07:33.498Z,47.79
2023-02-27T17:10:02.908Z,47.75
2023-02-27T17:12:29.423Z,47.88
2023-02-27T17:14:56.361Z,48.26
2023-02-27T17:17:22.852Z,48.49
2023-02-27T17:19:49.352Z,48.53
2023-02-27T17:22:15.898Z,48.61
2023-02-27T17:24:42.482Z,48.66
2023-02-27T17:27:09.396Z,49.03
2023-02-27T17:29:38.362Z,48.79
2023-02-27T17:32:05.429Z,49.49
2023-02-27T17:34:31.981Z,49.71
2023-02-27T17:36:58.519Z,49.90
2023-02-27T17:39:25.017Z,49.90
2023-02-27T17:41:53.073Z,50.25
2023-02-27T17:44:19.690Z,50.35
2023-02-27T17:47:05.767Z,49.15
2023-02-27T17:49:32.194Z,50.46
2023-02-27T17:52:00.487Z,50.38
2023-02-27T17:54:27.147Z,50.80
2023-02-27T17:56:53.638Z,50.59
2023-02-27T17:59:20.278Z,50.86
2023-02-27T18:01:46.823Z,51.04
2023-02-27T18:04:13.851Z,51.46
2023-02-27T18:06:40.464Z,51.62
2023-02-27T18:09:06.970Z,51.67
2023-02-27T18:11:33.598Z,51.65
2023-02-27T18:14:00.441Z,51.83
2023-02-27T18:16:27.283Z,51.73
2023-02-27T18:18:54.003Z,52.16
2023-02-27T18:21:23.152Z,51.66
2023-02-27T18:23:51.657Z,51.87
2023-02-27T18:26:30.821Z,51.56
2023-02-27T18:29:03.793Z,51.26
2023-02-27T18:31:33.548Z,51.71
2023-02-27T18:34:00.992Z,52.05
2023-02-27T18:36:29.306Z,52.29
2023-02-27T18:38:56.270Z,52.06
2023-02-27T18:41:23.009Z,52.29
2023-02-27T18:43:49.826Z,52.42
2023-02-27T18:46:16.492Z,52.40
2023-02-27T18:48:44.503Z,52.55
2023-02-27T18:51:14.608Z,52.08
2023-02-27T18:53:44.280Z,52.49
2023-02-27T18:56:12.566Z,52.47
2023-02-27T18:58:39.357Z,52.44
2023-02-27T19:01:19.049Z,52.72
2023-02-27T19:03:46.140Z,52.80
2023-02-27T19:06:13.493Z,52.99
2023-02-27T19:08:40.069Z,52.78
2023-02-27T19:11:06.600Z,53.23
2023-02-27T19:13:33.135Z,52.83
2023-02-27T19:16:04.707Z,52.24
2023-02-27T19:18:31.634Z,53.00
2023-02-27T19:21:03.140Z,52.46
2023-02-27T19:23:30.377Z,53.07
2023-02-27T19:26:01.031Z,52.29
2023-02-27T19:28:27.960Z,53.27
2023-02-27T19:30:54.661Z,53.03
2023-02-27T19:33:21.466Z,53.07
2023-02-27T19:35:48.097Z,53.42
2023-02-27T19:38:14.735Z,53.52
2023-02-27T19:40:41.233Z,53.64
2023-02-27T19:43:07.898Z,53.60
2023-02-27T19:45:34.566Z,53.83
2023-02-27T19:48:01.586Z,53.88
2023-02-27T19:50:30.185Z,53.73
2023-02-27T19:52:56.769Z,53.58
2023-02-27T19:55:23.205Z,53.80
2023-02-27T19:57:49.788Z,53.85
2023-02-27T20:00:17.127Z,54.09
2023-02-27T20:02:43.694Z,53.96
2023-02-27T20:05:12.028Z,54.01
2023-02-27T20:07:39.162Z,53.91
2023-02-27T20:10:05.938Z,53.84
2023-02-27T20:12:32.691Z,54.14
2023-02-27T20:14:59.190Z,54.06
2023-02-27T20:17:25.711Z,53.88
2023-02-27T20:19:52.237Z,54.16
2023-02-27T20:22:18.673Z,54.35
2023-02-27T20:24:45.481Z,54.40
2023-02-27T20:27:12.216Z,54.40
2023-02-27T20:29:38.822Z,54.54
2023-02-27T20:32:05.391Z,54.59
2023-02-27T20:34:32.046Z,54.80
2023-02-27T20:37:00.255Z,54.63
2023-02-27T20:39:28.022Z,54.89
2023-02-27T20:41:54.541Z,54.77
2023-02-27T20:44:21.003Z,54.98
2023-02-27T20:46:49.265Z,54.89
2023-02-27T20:49:16.636Z,54.98
2023-02-27T20:51:44.027Z,55.01
2023-02-27T20:54:15.279Z,54.54
2023-02-27T20:56:43.089Z,55.29
2023-02-27T20:59:12.912Z,54.99
2023-02-27T21:01:39.654Z,55.17
2023-02-27T21:04:06.742Z,55.21
2023-02-27T21:06:34.896Z,55.17
2023-02-27T21:09:04.484Z,55.30
2023-02-27T21:11:33.297Z,55.24
2023-02-27T21:14:04.528Z,54.71
2023-02-27T21:16:31.429Z,55.37
2023-02-27T21:18:58.109Z,55.32
2023-02-27T21:21:28.181Z,55.41
2023-02-27T21:23:55.354Z,55.85
2023-02-27T21:26:30.797Z,54.69
2023-02-27T21:29:02.612Z,55.44
2023-02-27T21:31:31.708Z,55.27
2023-02-27T21:34:00.562Z,55.54
2023-02-27T21:36:30.240Z,55.62
2023-02-27T21:39:02.536Z,55.26
2023-02-27T21:41:29.940Z,55.90
2023-02-27T21:44:01.251Z,55.31
2023-02-27T21:46:28.119Z,55.74
2023-02-27T21:48:54.804Z,55.93
2023-02-27T21:51:36.730Z,56.18
2023-02-27T21:54:05.684Z,55.96
2023-02-27T21:56:34.579Z,56.13
2023-02-27T21:59:01.850Z,56.17
2023-02-27T22:01:29.791Z,56.38
2023-02-27T22:03:57.237Z,56.54
2023-02-27T22:06:25.725Z,56.34
2023-02-27T22:08:54.795Z,56.76
2023-02-27T22:11:21.709Z,57.01
2023-02-27T22:13:48.409Z,57.10
2023-02-27T22:16:15.094Z,57.13
2023-02-27T22:18:41.866Z,57.00
2023-02-27T22:21:11.467Z,56.33
2023-02-27T22:23:38.553Z,56.58
2023-02-27T22:26:08.631Z,56.52
2023-02-27T22:28:37.040Z,56.69
2023-02-27T22:31:28.768Z,55.97
2023-02-27T22:33:59.031Z,57.00
2023-02-27T22:36:29.123Z,57.05
2023-02-27T22:38:56.341Z,57.12
2023-02-27T22:41:29.154Z,56.13
2023-02-27T22:43:56.236Z,55.62
2023-02-27T22:46:34.699Z,56.52
2023-02-27T22:49:08.134Z,57.00
2023-02-27T22:51:35.198Z,57.10
2023-02-27T22:54:03.486Z,56.97
2023-02-27T22:56:31.012Z,57.27
2023-02-27T22:58:57.623Z,57.31
2023-02-27T23:01:33.236Z,57.45
2023-02-27T23:04:03.397Z,57.38
2023-02-27T23:06:33.012Z,57.47
2023-02-27T23:09:00.495Z,57.91
2023-02-27T23:11:27.812Z,58.35
2023-02-27T23:13:54.689Z,58.12
2023-02-27T23:16:21.356Z,58.18
2023-02-27T23:18:50.418Z,57.88
2023-02-27T23:21:18.969Z,58.05
2023-02-27T23:23:45.848Z,58.35
2023-02-27T23:26:12.723Z,58.24
2023-02-27T23:31:14.745Z,58.39
2023-02-27T23:33:41.329Z,58.49
2023-02-27T23:36:07.929Z,58.61
2023-02-27T23:38:34.383Z,58.54
2023-02-27T23:41:08.601Z,57.52
2023-02-27T23:43:35.882Z,58.17
2023-02-27T23:46:10.066Z,57.58
2023-02-27T23:48:37.451Z,58.66
2023-02-27T23:51:05.762Z,58.28
2023-02-27T23:53:33.371Z,58.55
2023-02-27T23:55:59.986Z,58.54
2023-02-27T23:58:26.596Z,58.67
